Terminal Aerodrome Forecast
Issued by NWS

Home | Current Version | Previous Version | Text Only | Print | Product List | Glossary Off
Versions: 1 2 3 4 5 6 7 8 9 10 11 12 13 14 15 16 17

402
FTUS43 KGRB 062000 AAA
TAFAUW
TAF AMD
KAUW 062000Z 0620/0718 23008KT P6SM SCT020 OVC100
     FM070100 20011KT P6SM BKN011 OVC100
     FM070600 20008KT P6SM BKN100
     FM071200 22011G15KT P6SM BKN060 OVC090=

USA.gov is the U.S. government's official web portal to all federal, state and local government web resources and services.